sensor_id;sensor_type;location;lat;lon;timestamp;P1;durP1;ratioP1;P2;durP2;ratioP2
54945;SDS011;40846;44.788;20.486;2022-08-19T00:00:28;11.60;;;4.82;;
54945;SDS011;40846;44.788;20.486;2022-08-19T00:02:54;10.57;;;5.65;;
54945;SDS011;40846;44.788;20.486;2022-08-19T00:05:20;10.00;;;5.68;;
54945;SDS011;40846;44.788;20.486;2022-08-19T00:07:47;6.45;;;4.72;;
54945;SDS011;40846;44.788;20.486;2022-08-19T00:10:14;8.35;;;5.22;;
54945;SDS011;40846;44.788;20.486;2022-08-19T00:12:40;10.60;;;5.35;;
54945;SDS011;40846;44.788;20.486;2022-08-19T00:15:07;12.25;;;4.70;;
54945;SDS011;40846;44.788;20.486;2022-08-19T00:17:41;12.60;;;4.57;;
54945;SDS011;40846;44.788;20.486;2022-08-19T00:20:09;12.07;;;4.78;;
54945;SDS011;40846;44.788;20.486;2022-08-19T00:22:35;12.10;;;5.80;;
54945;SDS011;40846;44.788;20.486;2022-08-19T00:25:02;11.98;;;5.10;;
54945;SDS011;40846;44.788;20.486;2022-08-19T00:27:28;11.05;;;5.18;;
54945;SDS011;40846;44.788;20.486;2022-08-19T00:29:54;9.73;;;5.00;;
54945;SDS011;40846;44.788;20.486;2022-08-19T00:32:20;9.70;;;4.28;;
54945;SDS011;40846;44.788;20.486;2022-08-19T00:34:46;10.77;;;3.80;;
54945;SDS011;40846;44.788;20.486;2022-08-19T00:37:12;9.57;;;4.15;;
54945;SDS011;40846;44.788;20.486;2022-08-19T00:39:39;14.05;;;4.78;;
54945;SDS011;40846;44.788;20.486;2022-08-19T00:42:05;13.25;;;3.95;;
54945;SDS011;40846;44.788;20.486;2022-08-19T00:44:31;16.77;;;4.47;;
54945;SDS011;40846;44.788;20.486;2022-08-19T00:46:57;13.98;;;5.07;;
54945;SDS011;40846;44.788;20.486;2022-08-19T00:49:31;7.38;;;4.28;;
54945;SDS011;40846;44.788;20.486;2022-08-19T00:52:04;11.75;;;4.25;;
54945;SDS011;40846;44.788;20.486;2022-08-19T00:54:33;9.82;;;4.07;;
54945;SDS011;40846;44.788;20.486;2022-08-19T00:56:59;15.60;;;4.80;;
54945;SDS011;40846;44.788;20.486;2022-08-19T00:59:28;11.65;;;4.10;;
54945;SDS011;40846;44.788;20.486;2022-08-19T01:01:54;7.63;;;3.60;;
54945;SDS011;40846;44.788;20.486;2022-08-19T01:04:20;9.05;;;4.35;;
54945;SDS011;40846;44.788;20.486;2022-08-19T01:06:46;10.40;;;4.63;;
54945;SDS011;40846;44.788;20.486;2022-08-19T01:09:12;7.05;;;4.40;;
54945;SDS011;40846;44.788;20.486;2022-08-19T01:11:40;10.85;;;4.18;;
54945;SDS011;40846;44.788;20.486;2022-08-19T01:14:07;10.02;;;4.95;;
54945;SDS011;40846;44.788;20.486;2022-08-19T01:16:34;10.35;;;4.20;;
54945;SDS011;40846;44.788;20.486;2022-08-19T01:19:02;9.35;;;4.55;;
54945;SDS011;40846;44.788;20.486;2022-08-19T01:21:35;12.02;;;5.13;;
54945;SDS011;40846;44.788;20.486;2022-08-19T01:24:03;7.70;;;4.85;;
54945;SDS011;40846;44.788;20.486;2022-08-19T01:26:29;8.73;;;4.63;;
54945;SDS011;40846;44.788;20.486;2022-08-19T01:28:56;6.05;;;4.55;;
54945;SDS011;40846;44.788;20.486;2022-08-19T01:31:27;14.13;;;5.47;;
54945;SDS011;40846;44.788;20.486;2022-08-19T01:33:57;7.78;;;4.65;;
54945;SDS011;40846;44.788;20.486;2022-08-19T01:38:52;11.13;;;5.15;;
54945;SDS011;40846;44.788;20.486;2022-08-19T01:41:18;7.55;;;5.05;;
54945;SDS011;40846;44.788;20.486;2022-08-19T01:43:45;6.97;;;5.03;;
54945;SDS011;40846;44.788;20.486;2022-08-19T01:46:11;10.90;;;5.10;;
54945;SDS011;40846;44.788;20.486;2022-08-19T01:48:39;9.68;;;5.10;;
54945;SDS011;40846;44.788;20.486;2022-08-19T01:51:06;7.63;;;4.97;;
54945;SDS011;40846;44.788;20.486;2022-08-19T01:53:32;9.75;;;4.60;;
54945;SDS011;40846;44.788;20.486;2022-08-19T01:55:58;8.43;;;4.07;;
54945;SDS011;40846;44.788;20.486;2022-08-19T01:58:27;10.02;;;5.43;;
54945;SDS011;40846;44.788;20.486;2022-08-19T02:00:55;10.43;;;4.20;;
54945;SDS011;40846;44.788;20.486;2022-08-19T02:03:23;6.10;;;3.85;;
54945;SDS011;40846;44.788;20.486;2022-08-19T02:05:54;12.27;;;4.07;;
54945;SDS011;40846;44.788;20.486;2022-08-19T02:08:41;11.35;;;3.65;;
54945;SDS011;40846;44.788;20.486;2022-08-19T02:11:19;9.05;;;3.80;;
54945;SDS011;40846;44.788;20.486;2022-08-19T02:13:45;11.37;;;4.87;;
54945;SDS011;40846;44.788;20.486;2022-08-19T02:16:11;10.48;;;4.13;;
54945;SDS011;40846;44.788;20.486;2022-08-19T02:18:37;14.88;;;4.65;;
54945;SDS011;40846;44.788;20.486;2022-08-19T02:21:03;9.70;;;3.90;;
54945;SDS011;40846;44.788;20.486;2022-08-19T02:23:55;6.50;;;4.07;;
54945;SDS011;40846;44.788;20.486;2022-08-19T02:26:21;10.60;;;3.92;;
54945;SDS011;40846;44.788;20.486;2022-08-19T02:28:52;9.77;;;4.55;;
54945;SDS011;40846;44.788;20.486;2022-08-19T02:31:20;16.63;;;3.92;;
54945;SDS011;40846;44.788;20.486;2022-08-19T02:33:47;8.25;;;4.00;;
54945;SDS011;40846;44.788;20.486;2022-08-19T02:36:14;13.32;;;3.90;;
54945;SDS011;40846;44.788;20.486;2022-08-19T02:38:41;13.55;;;4.03;;
54945;SDS011;40846;44.788;20.486;2022-08-19T02:41:09;16.88;;;3.75;;
54945;SDS011;40846;44.788;20.486;2022-08-19T02:43:36;6.25;;;3.30;;
54945;SDS011;40846;44.788;20.486;2022-08-19T02:46:20;9.70;;;3.58;;
54945;SDS011;40846;44.788;20.486;2022-08-19T02:48:50;6.82;;;3.40;;
54945;SDS011;40846;44.788;20.486;2022-08-19T02:51:27;9.82;;;3.53;;
54945;SDS011;40846;44.788;20.486;2022-08-19T02:53:54;7.88;;;3.50;;
54945;SDS011;40846;44.788;20.486;2022-08-19T02:56:20;6.45;;;3.75;;
54945;SDS011;40846;44.788;20.486;2022-08-19T02:58:46;5.90;;;3.08;;
54945;SDS011;40846;44.788;20.486;2022-08-19T03:01:30;7.13;;;3.25;;
54945;SDS011;40846;44.788;20.486;2022-08-19T03:03:56;9.63;;;3.30;;
54945;SDS011;40846;44.788;20.486;2022-08-19T03:06:23;8.45;;;4.00;;
54945;SDS011;40846;44.788;20.486;2022-08-19T03:08:49;17.23;;;4.80;;
54945;SDS011;40846;44.788;20.486;2022-08-19T03:11:17;7.78;;;3.42;;
54945;SDS011;40846;44.788;20.486;2022-08-19T03:13:44;15.45;;;3.58;;
54945;SDS011;40846;44.788;20.486;2022-08-19T03:16:11;8.57;;;3.97;;
54945;SDS011;40846;44.788;20.486;2022-08-19T03:18:37;8.10;;;3.47;;
54945;SDS011;40846;44.788;20.486;2022-08-19T03:21:03;6.75;;;3.70;;
54945;SDS011;40846;44.788;20.486;2022-08-19T03:23:30;7.75;;;3.67;;
54945;SDS011;40846;44.788;20.486;2022-08-19T03:25:56;7.22;;;3.17;;
54945;SDS011;40846;44.788;20.486;2022-08-19T03:28:22;6.32;;;3.63;;
54945;SDS011;40846;44.788;20.486;2022-08-19T03:30:55;12.55;;;3.38;;
54945;SDS011;40846;44.788;20.486;2022-08-19T03:33:22;12.85;;;3.63;;
54945;SDS011;40846;44.788;20.486;2022-08-19T03:35:59;10.32;;;4.05;;
54945;SDS011;40846;44.788;20.486;2022-08-19T03:38:25;5.40;;;3.10;;
54945;SDS011;40846;44.788;20.486;2022-08-19T03:40:51;13.95;;;3.63;;
54945;SDS011;40846;44.788;20.486;2022-08-19T03:43:17;8.65;;;3.55;;
54945;SDS011;40846;44.788;20.486;2022-08-19T03:45:43;7.75;;;3.63;;
54945;SDS011;40846;44.788;20.486;2022-08-19T03:48:10;7.65;;;3.95;;
54945;SDS011;40846;44.788;20.486;2022-08-19T03:50:39;12.38;;;3.70;;
54945;SDS011;40846;44.788;20.486;2022-08-19T03:53:05;5.57;;;3.58;;
54945;SDS011;40846;44.788;20.486;2022-08-19T03:55:33;5.82;;;3.58;;
54945;SDS011;40846;44.788;20.486;2022-08-19T03:57:59;9.20;;;3.92;;
54945;SDS011;40846;44.788;20.486;2022-08-19T04:00:26;13.50;;;4.90;;
54945;SDS011;40846;44.788;20.486;2022-08-19T04:02:52;18.83;;;3.70;;
54945;SDS011;40846;44.788;20.486;2022-08-19T04:05:18;9.38;;;4.05;;
54945;SDS011;40846;44.788;20.486;2022-08-19T04:07:44;8.88;;;3.78;;
54945;SDS011;40846;44.788;20.486;2022-08-19T04:10:10;10.45;;;3.70;;
54945;SDS011;40846;44.788;20.486;2022-08-19T04:12:36;8.32;;;3.50;;
54945;SDS011;40846;44.788;20.486;2022-08-19T04:15:03;9.80;;;3.40;;
54945;SDS011;40846;44.788;20.486;2022-08-19T04:17:31;10.68;;;3.67;;
54945;SDS011;40846;44.788;20.486;2022-08-19T04:19:57;8.15;;;4.20;;
54945;SDS011;40846;44.788;20.486;2022-08-19T04:22:23;8.35;;;4.18;;
54945;SDS011;40846;44.788;20.486;2022-08-19T04:24:49;6.50;;;3.45;;
54945;SDS011;40846;44.788;20.486;2022-08-19T04:27:15;9.23;;;4.43;;
54945;SDS011;40846;44.788;20.486;2022-08-19T04:29:41;8.63;;;3.95;;
54945;SDS011;40846;44.788;20.486;2022-08-19T04:32:08;8.52;;;3.55;;
54945;SDS011;40846;44.788;20.486;2022-08-19T04:34:34;8.43;;;3.92;;
54945;SDS011;40846;44.788;20.486;2022-08-19T04:37:00;12.30;;;3.70;;
54945;SDS011;40846;44.788;20.486;2022-08-19T04:39:27;10.73;;;3.67;;
54945;SDS011;40846;44.788;20.486;2022-08-19T04:42:12;13.70;;;4.63;;
54945;SDS011;40846;44.788;20.486;2022-08-19T04:44:57;9.07;;;3.92;;
54945;SDS011;40846;44.788;20.486;2022-08-19T04:47:23;9.10;;;4.60;;
54945;SDS011;40846;44.788;20.486;2022-08-19T04:49:50;10.43;;;3.80;;
54945;SDS011;40846;44.788;20.486;2022-08-19T04:52:16;9.70;;;4.15;;
54945;SDS011;40846;44.788;20.486;2022-08-19T04:54:42;8.85;;;4.40;;
54945;SDS011;40846;44.788;20.486;2022-08-19T04:57:08;6.82;;;3.80;;
54945;SDS011;40846;44.788;20.486;2022-08-19T04:59:36;8.55;;;3.88;;
54945;SDS011;40846;44.788;20.486;2022-08-19T05:02:03;16.38;;;4.55;;
54945;SDS011;40846;44.788;20.486;2022-08-19T05:04:29;12.25;;;3.70;;
54945;SDS011;40846;44.788;20.486;2022-08-19T05:06:56;17.77;;;3.95;;
54945;SDS011;40846;44.788;20.486;2022-08-19T05:09:23;8.60;;;4.20;;
54945;SDS011;40846;44.788;20.486;2022-08-19T05:11:49;12.00;;;5.00;;
54945;SDS011;40846;44.788;20.486;2022-08-19T05:14:18;8.40;;;3.90;;
54945;SDS011;40846;44.788;20.486;2022-08-19T05:16:45;7.75;;;3.75;;
54945;SDS011;40846;44.788;20.486;2022-08-19T05:19:11;20.48;;;5.10;;
54945;SDS011;40846;44.788;20.486;2022-08-19T05:21:55;12.30;;;4.07;;
54945;SDS011;40846;44.788;20.486;2022-08-19T05:24:40;10.48;;;4.53;;
54945;SDS011;40846;44.788;20.486;2022-08-19T05:27:06;10.77;;;4.45;;
54945;SDS011;40846;44.788;20.486;2022-08-19T05:29:33;11.38;;;4.40;;
54945;SDS011;40846;44.788;20.486;2022-08-19T05:31:59;9.32;;;4.53;;
54945;SDS011;40846;44.788;20.486;2022-08-19T05:34:26;9.77;;;4.80;;
54945;SDS011;40846;44.788;20.486;2022-08-19T05:36:53;10.32;;;5.20;;
54945;SDS011;40846;44.788;20.486;2022-08-19T05:39:21;13.32;;;5.43;;
54945;SDS011;40846;44.788;20.486;2022-08-19T05:41:49;10.63;;;4.68;;
54945;SDS011;40846;44.788;20.486;2022-08-19T05:44:16;11.75;;;5.30;;
54945;SDS011;40846;44.788;20.486;2022-08-19T05:46:43;11.23;;;5.20;;
54945;SDS011;40846;44.788;20.486;2022-08-19T05:49:12;16.70;;;5.15;;
54945;SDS011;40846;44.788;20.486;2022-08-19T05:51:41;12.63;;;5.05;;
54945;SDS011;40846;44.788;20.486;2022-08-19T05:54:08;13.98;;;4.80;;
54945;SDS011;40846;44.788;20.486;2022-08-19T05:56:36;8.70;;;5.28;;
54945;SDS011;40846;44.788;20.486;2022-08-19T05:59:03;16.30;;;5.43;;
54945;SDS011;40846;44.788;20.486;2022-08-19T06:01:35;11.40;;;5.35;;
54945;SDS011;40846;44.788;20.486;2022-08-19T06:04:02;9.40;;;4.90;;
54945;SDS011;40846;44.788;20.486;2022-08-19T06:06:28;11.32;;;5.13;;
54945;SDS011;40846;44.788;20.486;2022-08-19T06:08:54;12.63;;;4.90;;
54945;SDS011;40846;44.788;20.486;2022-08-19T06:11:22;11.70;;;5.32;;
54945;SDS011;40846;44.788;20.486;2022-08-19T06:13:50;16.25;;;5.93;;
54945;SDS011;40846;44.788;20.486;2022-08-19T06:16:18;11.98;;;5.00;;
54945;SDS011;40846;44.788;20.486;2022-08-19T06:18:56;15.27;;;4.50;;
54945;SDS011;40846;44.788;20.486;2022-08-19T06:24:39;10.10;;;4.88;;
54945;SDS011;40846;44.788;20.486;2022-08-19T06:27:05;8.65;;;5.30;;
54945;SDS011;40846;44.788;20.486;2022-08-19T06:29:31;20.98;;;5.25;;
54945;SDS011;40846;44.788;20.486;2022-08-19T06:31:58;12.27;;;5.80;;
54945;SDS011;40846;44.788;20.486;2022-08-19T06:34:24;14.70;;;5.78;;
54945;SDS011;40846;44.788;20.486;2022-08-19T06:36:52;16.30;;;4.72;;
54945;SDS011;40846;44.788;20.486;2022-08-19T06:39:19;13.55;;;4.90;;
54945;SDS011;40846;44.788;20.486;2022-08-19T06:41:47;12.55;;;4.65;;
54945;SDS011;40846;44.788;20.486;2022-08-19T06:44:13;14.93;;;4.97;;
54945;SDS011;40846;44.788;20.486;2022-08-19T06:46:40;9.38;;;4.95;;
54945;SDS011;40846;44.788;20.486;2022-08-19T06:49:06;12.32;;;4.82;;
54945;SDS011;40846;44.788;20.486;2022-08-19T06:51:46;10.43;;;4.97;;
54945;SDS011;40846;44.788;20.486;2022-08-19T06:54:16;17.58;;;5.82;;
54945;SDS011;40846;44.788;20.486;2022-08-19T06:56:46;9.83;;;5.63;;
54945;SDS011;40846;44.788;20.486;2022-08-19T06:59:14;16.00;;;5.25;;
54945;SDS011;40846;44.788;20.486;2022-08-19T07:01:42;17.35;;;5.97;;
54945;SDS011;40846;44.788;20.486;2022-08-19T07:04:12;15.07;;;5.85;;
54945;SDS011;40846;44.788;20.486;2022-08-19T07:06:40;15.93;;;6.03;;
54945;SDS011;40846;44.788;20.486;2022-08-19T07:09:07;12.23;;;5.43;;
54945;SDS011;40846;44.788;20.486;2022-08-19T07:11:33;11.52;;;5.65;;
54945;SDS011;40846;44.788;20.486;2022-08-19T07:14:00;26.50;;;5.70;;
54945;SDS011;40846;44.788;20.486;2022-08-19T07:16:27;17.23;;;6.15;;
54945;SDS011;40846;44.788;20.486;2022-08-19T07:18:53;10.85;;;5.50;;
54945;SDS011;40846;44.788;20.486;2022-08-19T07:21:20;11.20;;;5.05;;
54945;SDS011;40846;44.788;20.486;2022-08-19T07:24:00;13.73;;;5.55;;
54945;SDS011;40846;44.788;20.486;2022-08-19T07:27:02;10.48;;;5.53;;
54945;SDS011;40846;44.788;20.486;2022-08-19T07:29:35;14.20;;;6.22;;
54945;SDS011;40846;44.788;20.486;2022-08-19T07:32:24;11.07;;;5.20;;
54945;SDS011;40846;44.788;20.486;2022-08-19T07:34:52;16.83;;;6.72;;
54945;SDS011;40846;44.788;20.486;2022-08-19T07:37:22;12.98;;;6.75;;
54945;SDS011;40846;44.788;20.486;2022-08-19T07:40:12;16.05;;;6.75;;
54945;SDS011;40846;44.788;20.486;2022-08-19T07:42:38;12.70;;;6.18;;
54945;SDS011;40846;44.788;20.486;2022-08-19T07:45:10;8.75;;;5.40;;
54945;SDS011;40846;44.788;20.486;2022-08-19T07:58:49;16.48;;;5.30;;
54945;SDS011;40846;44.788;20.486;2022-08-19T08:04:02;10.88;;;4.93;;
54945;SDS011;40846;44.788;20.486;2022-08-19T08:06:46;13.23;;;5.80;;
54945;SDS011;40846;44.788;20.486;2022-08-19T08:09:33;9.02;;;5.13;;
54945;SDS011;40846;44.788;20.486;2022-08-19T08:14:37;13.95;;;5.43;;
54945;SDS011;40846;44.788;20.486;2022-08-19T08:17:08;12.13;;;5.20;;
54945;SDS011;40846;44.788;20.486;2022-08-19T08:19:44;10.63;;;4.63;;
54945;SDS011;40846;44.788;20.486;2022-08-19T08:22:12;7.78;;;4.50;;
54945;SDS011;40846;44.788;20.486;2022-08-19T08:25:05;20.52;;;4.70;;
54945;SDS011;40846;44.788;20.486;2022-08-19T08:27:37;10.85;;;4.85;;
54945;SDS011;40846;44.788;20.486;2022-08-19T08:30:08;13.20;;;6.00;;
54945;SDS011;40846;44.788;20.486;2022-08-19T08:36:08;9.63;;;4.53;;
54945;SDS011;40846;44.788;20.486;2022-08-19T08:38:34;8.38;;;4.22;;
54945;SDS011;40846;44.788;20.486;2022-08-19T08:41:03;18.48;;;5.55;;
54945;SDS011;40846;44.788;20.486;2022-08-19T08:48:37;17.80;;;4.50;;
54945;SDS011;40846;44.788;20.486;2022-08-19T08:51:10;15.77;;;4.82;;
54945;SDS011;40846;44.788;20.486;2022-08-19T08:53:37;15.60;;;5.53;;
54945;SDS011;40846;44.788;20.486;2022-08-19T08:56:04;12.88;;;5.07;;
54945;SDS011;40846;44.788;20.486;2022-08-19T08:58:36;15.57;;;4.32;;
54945;SDS011;40846;44.788;20.486;2022-08-19T09:01:08;10.63;;;4.43;;
54945;SDS011;40846;44.788;20.486;2022-08-19T09:03:38;16.27;;;4.60;;
54945;SDS011;40846;44.788;20.486;2022-08-19T09:11:50;11.35;;;4.55;;
54945;SDS011;40846;44.788;20.486;2022-08-19T09:17:15;11.00;;;5.10;;
54945;SDS011;40846;44.788;20.486;2022-08-19T09:19:56;17.85;;;4.68;;
54945;SDS011;40846;44.788;20.486;2022-08-19T09:22:29;17.98;;;4.68;;
54945;SDS011;40846;44.788;20.486;2022-08-19T09:24:55;19.85;;;4.97;;
54945;SDS011;40846;44.788;20.486;2022-08-19T09:27:21;7.95;;;4.13;;
54945;SDS011;40846;44.788;20.486;2022-08-19T09:29:54;8.38;;;5.10;;
54945;SDS011;40846;44.788;20.486;2022-08-19T09:32:20;12.73;;;5.13;;
54945;SDS011;40846;44.788;20.486;2022-08-19T09:34:47;13.82;;;4.90;;
54945;SDS011;40846;44.788;20.486;2022-08-19T09:37:16;15.20;;;4.47;;
54945;SDS011;40846;44.788;20.486;2022-08-19T09:39:41;16.23;;;4.32;;
54945;SDS011;40846;44.788;20.486;2022-08-19T09:42:07;11.25;;;5.28;;
54945;SDS011;40846;44.788;20.486;2022-08-19T09:47:08;8.02;;;4.72;;
54945;SDS011;40846;44.788;20.486;2022-08-19T09:49:35;14.43;;;4.40;;
54945;SDS011;40846;44.788;20.486;2022-08-19T09:52:03;10.43;;;4.63;;
54945;SDS011;40846;44.788;20.486;2022-08-19T09:54:29;7.07;;;3.63;;
54945;SDS011;40846;44.788;20.486;2022-08-19T09:56:55;14.15;;;5.35;;
54945;SDS011;40846;44.788;20.486;2022-08-19T09:59:25;12.13;;;4.07;;
54945;SDS011;40846;44.788;20.486;2022-08-19T10:02:05;12.13;;;4.28;;
54945;SDS011;40846;44.788;20.486;2022-08-19T10:04:38;13.52;;;4.28;;
54945;SDS011;40846;44.788;20.486;2022-08-19T10:07:22;15.75;;;4.60;;
54945;SDS011;40846;44.788;20.486;2022-08-19T10:09:49;7.68;;;4.45;;
54945;SDS011;40846;44.788;20.486;2022-08-19T10:12:15;15.45;;;4.65;;
54945;SDS011;40846;44.788;20.486;2022-08-19T10:14:44;8.98;;;4.03;;
54945;SDS011;40846;44.788;20.486;2022-08-19T10:17:11;20.05;;;4.78;;
54945;SDS011;40846;44.788;20.486;2022-08-19T10:19:58;9.70;;;4.20;;
54945;SDS011;40846;44.788;20.486;2022-08-19T10:22:33;10.48;;;4.20;;
54945;SDS011;40846;44.788;20.486;2022-08-19T10:25:03;10.05;;;3.83;;
54945;SDS011;40846;44.788;20.486;2022-08-19T10:27:32;9.32;;;4.22;;
54945;SDS011;40846;44.788;20.486;2022-08-19T10:30:12;9.07;;;4.28;;
54945;SDS011;40846;44.788;20.486;2022-08-19T10:32:38;9.40;;;3.83;;
54945;SDS011;40846;44.788;20.486;2022-08-19T10:35:05;7.95;;;4.15;;
54945;SDS011;40846;44.788;20.486;2022-08-19T10:37:33;16.27;;;4.07;;
54945;SDS011;40846;44.788;20.486;2022-08-19T10:40:23;7.43;;;4.10;;
54945;SDS011;40846;44.788;20.486;2022-08-19T10:42:48;8.32;;;3.83;;
54945;SDS011;40846;44.788;20.486;2022-08-19T10:45:14;8.45;;;3.45;;
54945;SDS011;40846;44.788;20.486;2022-08-19T10:47:40;8.73;;;3.95;;
54945;SDS011;40846;44.788;20.486;2022-08-19T10:50:06;8.50;;;4.10;;
54945;SDS011;40846;44.788;20.486;2022-08-19T10:52:51;9.40;;;4.65;;
54945;SDS011;40846;44.788;20.486;2022-08-19T10:55:21;11.10;;;4.47;;
54945;SDS011;40846;44.788;20.486;2022-08-19T10:58:14;9.30;;;3.97;;
54945;SDS011;40846;44.788;20.486;2022-08-19T11:00:42;9.63;;;4.28;;
54945;SDS011;40846;44.788;20.486;2022-08-19T11:03:15;20.95;;;4.07;;
54945;SDS011;40846;44.788;20.486;2022-08-19T11:05:41;14.18;;;4.97;;
54945;SDS011;40846;44.788;20.486;2022-08-19T11:08:08;14.27;;;4.35;;
54945;SDS011;40846;44.788;20.486;2022-08-19T11:10:41;7.20;;;4.35;;
54945;SDS011;40846;44.788;20.486;2022-08-19T11:13:07;10.10;;;4.68;;
54945;SDS011;40846;44.788;20.486;2022-08-19T11:15:33;7.03;;;3.67;;
54945;SDS011;40846;44.788;20.486;2022-08-19T11:17:59;9.00;;;3.92;;
54945;SDS011;40846;44.788;20.486;2022-08-19T11:20:25;11.57;;;4.10;;
54945;SDS011;40846;44.788;20.486;2022-08-19T11:22:57;14.50;;;4.60;;
54945;SDS011;40846;44.788;20.486;2022-08-19T11:25:30;8.85;;;3.78;;
54945;SDS011;40846;44.788;20.486;2022-08-19T11:27:57;13.95;;;4.28;;
54945;SDS011;40846;44.788;20.486;2022-08-19T11:30:23;10.48;;;3.90;;
54945;SDS011;40846;44.788;20.486;2022-08-19T11:32:48;11.52;;;4.60;;
54945;SDS011;40846;44.788;20.486;2022-08-19T11:35:15;12.55;;;4.55;;
54945;SDS011;40846;44.788;20.486;2022-08-19T11:37:41;11.02;;;4.07;;
54945;SDS011;40846;44.788;20.486;2022-08-19T11:40:07;12.98;;;3.92;;
54945;SDS011;40846;44.788;20.486;2022-08-19T11:42:33;9.13;;;4.07;;
54945;SDS011;40846;44.788;20.486;2022-08-19T11:45:18;10.10;;;3.90;;
54945;SDS011;40846;44.788;20.486;2022-08-19T11:47:44;14.18;;;4.40;;
54945;SDS011;40846;44.788;20.486;2022-08-19T11:50:13;16.33;;;5.15;;
54945;SDS011;40846;44.788;20.486;2022-08-19T11:52:39;9.85;;;4.55;;
54945;SDS011;40846;44.788;20.486;2022-08-19T11:55:05;10.10;;;4.43;;
54945;SDS011;40846;44.788;20.486;2022-08-19T11:57:31;8.77;;;4.32;;
54945;SDS011;40846;44.788;20.486;2022-08-19T12:00:00;12.68;;;4.40;;
54945;SDS011;40846;44.788;20.486;2022-08-19T12:02:29;13.30;;;4.18;;
54945;SDS011;40846;44.788;20.486;2022-08-19T12:04:55;18.10;;;4.35;;
54945;SDS011;40846;44.788;20.486;2022-08-19T12:07:26;14.63;;;3.70;;
54945;SDS011;40846;44.788;20.486;2022-08-19T12:09:52;11.73;;;3.90;;
54945;SDS011;40846;44.788;20.486;2022-08-19T12:12:17;8.80;;;3.53;;
54945;SDS011;40846;44.788;20.486;2022-08-19T12:14:46;10.82;;;4.00;;
54945;SDS011;40846;44.788;20.486;2022-08-19T12:17:12;18.80;;;4.53;;
54945;SDS011;40846;44.788;20.486;2022-08-19T12:19:38;14.80;;;3.80;;
54945;SDS011;40846;44.788;20.486;2022-08-19T12:22:04;14.82;;;4.88;;
54945;SDS011;40846;44.788;20.486;2022-08-19T12:24:33;17.70;;;4.57;;
54945;SDS011;40846;44.788;20.486;2022-08-19T12:26:59;13.10;;;3.95;;
54945;SDS011;40846;44.788;20.486;2022-08-19T12:29:26;12.85;;;4.53;;
54945;SDS011;40846;44.788;20.486;2022-08-19T12:31:54;10.88;;;4.47;;
54945;SDS011;40846;44.788;20.486;2022-08-19T12:34:26;10.57;;;4.15;;
54945;SDS011;40846;44.788;20.486;2022-08-19T12:36:57;16.42;;;4.25;;
54945;SDS011;40846;44.788;20.486;2022-08-19T12:39:23;10.75;;;4.30;;
54945;SDS011;40846;44.788;20.486;2022-08-19T12:41:49;10.30;;;4.43;;
54945;SDS011;40846;44.788;20.486;2022-08-19T12:44:16;12.98;;;4.47;;
54945;SDS011;40846;44.788;20.486;2022-08-19T12:46:42;14.70;;;4.38;;
54945;SDS011;40846;44.788;20.486;2022-08-19T12:49:11;16.33;;;4.43;;
54945;SDS011;40846;44.788;20.486;2022-08-19T12:51:46;8.93;;;4.63;;
54945;SDS011;40846;44.788;20.486;2022-08-19T12:54:14;12.38;;;4.43;;
54945;SDS011;40846;44.788;20.486;2022-08-19T12:56:49;18.73;;;4.25;;
54945;SDS011;40846;44.788;20.486;2022-08-19T12:59:15;11.13;;;4.00;;
54945;SDS011;40846;44.788;20.486;2022-08-19T13:01:43;17.88;;;5.45;;
54945;SDS011;40846;44.788;20.486;2022-08-19T13:04:09;18.75;;;4.65;;
54945;SDS011;40846;44.788;20.486;2022-08-19T13:06:35;13.20;;;4.55;;
54945;SDS011;40846;44.788;20.486;2022-08-19T13:09:02;13.93;;;4.30;;
54945;SDS011;40846;44.788;20.486;2022-08-19T13:11:28;12.82;;;4.00;;
54945;SDS011;40846;44.788;20.486;2022-08-19T13:13:57;18.88;;;4.40;;
54945;SDS011;40846;44.788;20.486;2022-08-19T13:16:23;13.40;;;3.97;;
54945;SDS011;40846;44.788;20.486;2022-08-19T13:18:49;14.23;;;3.97;;
54945;SDS011;40846;44.788;20.486;2022-08-19T13:21:19;21.95;;;5.20;;
54945;SDS011;40846;44.788;20.486;2022-08-19T13:23:49;9.85;;;4.60;;
54945;SDS011;40846;44.788;20.486;2022-08-19T13:26:32;18.08;;;5.00;;
54945;SDS011;40846;44.788;20.486;2022-08-19T13:28:58;14.45;;;4.50;;
54945;SDS011;40846;44.788;20.486;2022-08-19T13:31:50;14.32;;;4.13;;
54945;SDS011;40846;44.788;20.486;2022-08-19T13:34:34;12.98;;;3.75;;
54945;SDS011;40846;44.788;20.486;2022-08-19T13:37:02;17.38;;;4.72;;
54945;SDS011;40846;44.788;20.486;2022-08-19T13:39:41;15.52;;;4.28;;
54945;SDS011;40846;44.788;20.486;2022-08-19T13:42:07;18.25;;;5.07;;
54945;SDS011;40846;44.788;20.486;2022-08-19T13:44:35;19.92;;;4.20;;
54945;SDS011;40846;44.788;20.486;2022-08-19T13:47:02;20.45;;;4.78;;
54945;SDS011;40846;44.788;20.486;2022-08-19T13:49:34;10.75;;;3.92;;
54945;SDS011;40846;44.788;20.486;2022-08-19T13:52:05;13.10;;;4.80;;
54945;SDS011;40846;44.788;20.486;2022-08-19T13:54:31;13.30;;;4.63;;
54945;SDS011;40846;44.788;20.486;2022-08-19T13:56:57;13.85;;;5.07;;
54945;SDS011;40846;44.788;20.486;2022-08-19T13:59:25;17.75;;;3.80;;
54945;SDS011;40846;44.788;20.486;2022-08-19T14:02:21;16.58;;;4.13;;
54945;SDS011;40846;44.788;20.486;2022-08-19T14:05:01;13.85;;;4.00;;
54945;SDS011;40846;44.788;20.486;2022-08-19T14:10:35;10.80;;;3.90;;
54945;SDS011;40846;44.788;20.486;2022-08-19T14:13:21;24.05;;;4.30;;
54945;SDS011;40846;44.788;20.486;2022-08-19T14:15:57;15.48;;;4.38;;
54945;SDS011;40846;44.788;20.486;2022-08-19T14:18:23;13.55;;;4.30;;
54945;SDS011;40846;44.788;20.486;2022-08-19T14:20:50;10.50;;;4.75;;
54945;SDS011;40846;44.788;20.486;2022-08-19T14:23:28;18.02;;;5.22;;
54945;SDS011;40846;44.788;20.486;2022-08-19T14:26:22;23.83;;;4.90;;
54945;SDS011;40846;44.788;20.486;2022-08-19T14:28:48;16.17;;;4.57;;
54945;SDS011;40846;44.788;20.486;2022-08-19T14:31:15;18.17;;;4.28;;
54945;SDS011;40846;44.788;20.486;2022-08-19T14:33:45;15.90;;;4.22;;
54945;SDS011;40846;44.788;20.486;2022-08-19T14:36:14;13.77;;;3.72;;
54945;SDS011;40846;44.788;20.486;2022-08-19T14:38:40;15.95;;;4.50;;
54945;SDS011;40846;44.788;20.486;2022-08-19T14:41:16;16.60;;;4.45;;
54945;SDS011;40846;44.788;20.486;2022-08-19T14:43:44;12.93;;;3.95;;
54945;SDS011;40846;44.788;20.486;2022-08-19T14:46:12;10.25;;;4.00;;
54945;SDS011;40846;44.788;20.486;2022-08-19T14:48:40;13.23;;;4.05;;
54945;SDS011;40846;44.788;20.486;2022-08-19T14:51:23;13.60;;;5.10;;
54945;SDS011;40846;44.788;20.486;2022-08-19T14:54:14;11.93;;;4.50;;
54945;SDS011;40846;44.788;20.486;2022-08-19T14:56:40;14.13;;;4.57;;
54945;SDS011;40846;44.788;20.486;2022-08-19T14:59:06;17.08;;;4.72;;
54945;SDS011;40846;44.788;20.486;2022-08-19T15:01:34;25.00;;;4.22;;
54945;SDS011;40846;44.788;20.486;2022-08-19T15:04:10;20.15;;;4.07;;
54945;SDS011;40846;44.788;20.486;2022-08-19T15:06:36;9.35;;;3.83;;
54945;SDS011;40846;44.788;20.486;2022-08-19T15:09:02;26.63;;;4.10;;
54945;SDS011;40846;44.788;20.486;2022-08-19T15:11:29;16.27;;;5.13;;
54945;SDS011;40846;44.788;20.486;2022-08-19T15:13:59;15.68;;;5.07;;
54945;SDS011;40846;44.788;20.486;2022-08-19T15:23:05;17.80;;;4.85;;
54945;SDS011;40846;44.788;20.486;2022-08-19T15:25:51;16.13;;;5.15;;
54945;SDS011;40846;44.788;20.486;2022-08-19T15:28:46;22.58;;;5.05;;
54945;SDS011;40846;44.788;20.486;2022-08-19T15:31:42;38.13;;;6.32;;